Time;durP1;ratioP1;P1;durP2;ratioP2;P2;SDS_P1;SDS_P2;PMS_P1;PMS_P2;Temp;Humidity;BMP_temperature;BMP_pressure;BME280_temperature;BME280_humidity;BME280_pressure;Samples;Min_cycle;Max_cycle;Signal;HPM_P1;HPM_P2
2022/01/11 00:00:07;;;;;;;0.30;0.30;;;1.00;99.90;;;;;;5033526;28;20112;-68
2022/01/11 00:02:35;;;;;;;0.20;0.20;;;1.00;99.90;;;;;;5033880;28;20048;-67
2022/01/11 00:05:02;;;;;;;1.08;1.05;;;0.90;99.90;;;;;;5032333;28;20087;-68
2022/01/11 00:07:30;;;;;;;0.68;0.68;;;1.00;99.90;;;;;;5033808;28;20056;-67
2022/01/11 00:09:57;;;;;;;0.43;0.43;;;1.00;99.90;;;;;;5033353;28;20033;-68
2022/01/11 00:12:23;;;;;;;0.20;0.20;;;1.10;99.90;;;;;;5033682;28;20116;-68
2022/01/11 00:14:48;;;;;;;1.65;1.00;;;1.30;99.90;;;;;;5033403;28;20109;-68
2022/01/11 00:17:14;;;;;;;1.23;0.82;;;1.40;99.90;;;;;;5033172;28;20034;-68
2022/01/11 00:19:40;;;;;;;0.85;0.85;;;1.40;99.90;;;;;;5031893;28;20037;-68
2022/01/11 00:22:15;;;;;;;2.75;2.50;;;1.40;99.90;;;;;;5031942;28;20048;-68
2022/01/11 00:24:41;;;;;;;2.50;1.65;;;1.50;99.90;;;;;;5016572;28;20506;-68
2022/01/11 00:27:09;;;;;;;0.40;0.40;;;1.50;99.90;;;;;;5032890;28;20029;-67
2022/01/11 00:29:41;;;;;;;2.25;2.05;;;1.60;99.90;;;;;;5032988;28;20041;-67
2022/01/11 00:32:12;;;;;;;0.43;0.43;;;1.60;99.90;;;;;;5031765;28;20039;-68
2022/01/11 00:34:49;;;;;;;0.95;0.95;;;1.60;99.90;;;;;;5031947;28;20073;-68
2022/01/11 00:37:16;;;;;;;0.20;0.20;;;1.50;99.90;;;;;;5032672;28;20034;-68
2022/01/11 00:39:45;;;;;;;0.50;0.50;;;1.50;99.90;;;;;;5031602;28;20038;-68
2022/01/11 00:42:16;;;;;;;0.20;0.20;;;1.50;99.90;;;;;;5031465;28;20033;-68
2022/01/11 00:44:42;;;;;;;1.05;0.95;;;1.50;99.90;;;;;;5031825;28;20037;-68
2022/01/11 00:47:09;;;;;;;1.58;1.48;;;1.50;99.90;;;;;;5032616;28;20098;-67
2022/01/11 00:49:40;;;;;;;0.45;0.45;;;1.50;99.90;;;;;;5031229;28;20132;-67
2022/01/11 00:52:06;;;;;;;0.13;0.13;;;1.50;99.90;;;;;;5015601;28;20049;-67
2022/01/11 00:54:32;;;;;;;3.03;1.10;;;1.40;99.90;;;;;;5031227;28;20489;-67
2022/01/11 00:56:58;;;;;;;0.50;0.50;;;1.40;99.90;;;;;;5031184;28;20030;-67
2022/01/11 00:59:24;;;;;;;1.55;0.80;;;1.50;99.90;;;;;;5032320;28;20036;-67
2022/01/11 01:01:50;;;;;;;0.10;0.10;;;1.50;99.90;;;;;;5032448;28;20041;-68
2022/01/11 01:04:16;;;;;;;0.10;0.10;;;1.50;99.90;;;;;;5031314;28;20069;-68
2022/01/11 01:06:44;;;;;;;2.42;1.42;;;1.50;99.90;;;;;;5031358;28;20501;-68
2022/01/11 01:09:10;;;;;;;1.40;1.30;;;1.60;99.90;;;;;;5032201;28;20033;-68
2022/01/11 01:11:36;;;;;;;0.10;0.10;;;1.60;99.90;;;;;;5032228;28;20052;-68
2022/01/11 01:14:02;;;;;;;0.20;0.20;;;1.60;99.90;;;;;;5030919;28;20566;-69
2022/01/11 01:16:28;;;;;;;0.32;0.32;;;1.60;99.90;;;;;;5032423;28;20390;-68
2022/01/11 01:18:54;;;;;;;0.10;0.10;;;1.60;99.90;;;;;;5032281;28;20029;-68
2022/01/11 01:21:22;;;;;;;3.40;0.98;;;1.60;99.90;;;;;;5031845;28;20121;-68
2022/01/11 01:23:48;;;;;;;0.10;0.10;;;1.60;99.90;;;;;;5032261;28;20367;-68
2022/01/11 01:26:17;;;;;;;0.25;0.25;;;1.70;99.90;;;;;;5032016;28;20044;-68
2022/01/11 01:28:50;;;;;;;0.50;0.50;;;1.60;99.90;;;;;;5032248;28;20037;-68
2022/01/11 01:31:16;;;;;;;0.20;0.20;;;1.70;99.90;;;;;;5030700;28;20033;-68
2022/01/11 01:33:42;;;;;;;15.45;4.60;;;1.60;99.90;;;;;;5030700;28;20124;-68
2022/01/11 01:36:11;;;;;;;0.10;0.10;;;1.70;99.90;;;;;;5030850;28;20033;-68
2022/01/11 01:38:38;;;;;;;0.90;0.43;;;1.60;99.90;;;;;;5030238;28;20037;-68
2022/01/11 01:41:16;;;;;;;1.00;1.00;;;1.60;99.90;;;;;;5031892;28;20026;-68
2022/01/11 01:43:45;;;;;;;5.25;2.10;;;1.60;99.90;;;;;;5030624;28;20060;-68
2022/01/11 01:46:12;;;;;;;0.43;0.43;;;1.60;99.90;;;;;;5014076;28;20025;-68
2022/01/11 01:48:38;;;;;;;0.88;0.88;;;1.60;99.90;;;;;;5030393;28;20557;-68
2022/01/11 01:51:06;;;;;;;0.85;0.85;;;1.60;99.90;;;;;;5031788;28;20113;-68
2022/01/11 01:53:35;;;;;;;0.13;0.13;;;1.70;99.90;;;;;;5030509;28;20052;-68
2022/01/11 01:56:02;;;;;;;5.72;1.95;;;1.70;99.90;;;;;;5030367;28;20030;-69
2022/01/11 01:58:29;;;;;;;0.60;0.57;;;1.60;99.90;;;;;;5031538;28;20072;-68
2022/01/11 02:01:02;;;;;;;1.15;1.15;;;1.70;99.90;;;;;;5030489;28;20030;-68
2022/01/11 02:03:31;;;;;;;6.50;2.42;;;1.70;99.90;;;;;;5031586;28;20048;-68
2022/01/11 02:05:58;;;;;;;4.00;1.17;;;1.60;99.90;;;;;;5030510;28;20048;-68
2022/01/11 02:08:25;;;;;;;0.17;0.17;;;1.70;99.90;;;;;;5031839;28;20029;-70
2022/01/11 02:10:52;;;;;;;0.15;0.15;;;1.70;99.90;;;;;;5030154;28;20236;-69
2022/01/11 02:13:18;;;;;;;0.20;0.20;;;1.70;99.90;;;;;;5030431;28;20040;-68
2022/01/11 02:15:45;;;;;;;3.10;2.17;;;1.60;99.90;;;;;;5030296;28;20046;-68
2022/01/11 02:18:21;;;;;;;3.88;1.48;;;1.70;99.90;;;;;;5046509;28;20275;-68
2022/01/11 02:20:50;;;;;;;0.10;0.10;;;1.80;99.90;;;;;;5031498;28;20033;-68
2022/01/11 02:23:18;;;;;;;0.50;0.50;;;1.80;99.90;;;;;;5029866;28;20044;-68
2022/01/11 02:25:44;;;;;;;0.20;0.20;;;1.80;99.90;;;;;;5047083;28;20068;-68
2022/01/11 02:28:18;;;;;;;0.10;0.10;;;1.80;99.90;;;;;;5031302;28;20065;-68
2022/01/11 02:30:45;;;;;;;0.85;0.85;;;1.80;99.90;;;;;;5030349;28;20137;-68
2022/01/11 02:33:32;;;;;;;0.47;0.47;;;1.80;99.90;;;;;;5031470;28;20067;-68
2022/01/11 02:35:58;;;;;;;0.10;0.10;;;1.80;99.90;;;;;;5031267;28;20044;-68
2022/01/11 02:38:24;;;;;;;0.20;0.20;;;1.80;99.90;;;;;;5029737;28;20037;-68
2022/01/11 02:40:50;;;;;;;0.10;0.10;;;1.90;99.90;;;;;;5030381;28;20347;-68
2022/01/11 02:43:16;;;;;;;0.80;0.60;;;1.80;99.90;;;;;;5031084;28;20112;-68
2022/01/11 02:45:42;;;;;;;0.25;0.25;;;1.80;99.90;;;;;;5031537;28;20096;-68
2022/01/11 02:48:08;;;;;;;0.10;0.10;;;1.80;99.90;;;;;;5030847;28;20895;-68
2022/01/11 02:50:34;;;;;;;0.63;0.63;;;1.80;99.90;;;;;;5031974;28;20061;-68
2022/01/11 02:53:01;;;;;;;0.30;0.30;;;1.80;99.90;;;;;;5035115;28;20112;-68
2022/01/11 02:55:27;;;;;;;0.30;0.30;;;1.80;99.90;;;;;;5035020;28;20044;-68
2022/01/11 02:57:55;;;;;;;0.50;0.50;;;1.80;99.90;;;;;;5034750;28;20527;-68
2022/01/11 03:00:23;;;;;;;0.10;0.10;;;1.80;99.90;;;;;;5033861;28;20044;-68
2022/01/11 03:02:49;;;;;;;0.35;0.35;;;1.80;99.90;;;;;;5034554;28;20394;-67
2022/01/11 03:05:15;;;;;;;4.93;2.72;;;1.70;99.90;;;;;;5033461;28;20051;-68
2022/01/11 03:07:42;;;;;;;0.20;0.20;;;1.70;99.90;;;;;;5033597;28;20030;-68
2022/01/11 03:10:23;;;;;;;0.00;0.00;;;1.70;99.90;;;;;;5033625;28;20045;-68
2022/01/11 03:12:49;;;;;;;0.10;0.10;;;1.70;99.90;;;;;;5034906;28;20021;-68
2022/01/11 03:15:16;;;;;;;1.50;1.40;;;1.70;99.90;;;;;;5034584;28;20385;-68
2022/01/11 03:17:41;;;;;;;0.10;0.10;;;1.70;99.90;;;;;;5034064;28;20055;-68
2022/01/11 03:20:08;;;;;;;0.38;0.38;;;1.70;99.90;;;;;;5034484;28;20049;-68
2022/01/11 03:22:40;;;;;;;0.17;0.17;;;1.60;99.90;;;;;;5033516;28;20045;-68
2022/01/11 03:25:07;;;;;;;0.22;0.22;;;1.60;99.90;;;;;;5032905;28;20116;-68
2022/01/11 03:27:33;;;;;;;0.32;0.32;;;1.60;99.90;;;;;;5034330;28;20033;-68
2022/01/11 03:29:59;;;;;;;0.10;0.10;;;1.60;99.90;;;;;;5034221;28;20087;-68
2022/01/11 03:32:25;;;;;;;1.45;1.35;;;1.60;99.90;;;;;;5034967;28;20510;-68
2022/01/11 03:34:50;;;;;;;0.45;0.45;;;1.60;99.90;;;;;;5032884;28;20025;-68
2022/01/11 03:37:18;;;;;;;0.17;0.17;;;1.40;99.90;;;;;;5034239;28;20029;-68
2022/01/11 03:39:45;;;;;;;0.57;0.57;;;1.50;99.90;;;;;;5033975;28;20045;-68
2022/01/11 03:42:11;;;;;;;0.47;0.47;;;1.50;99.90;;;;;;5032659;28;20376;-68
2022/01/11 03:44:37;;;;;;;0.15;0.15;;;1.50;99.90;;;;;;5034055;28;20117;-68
2022/01/11 03:47:03;;;;;;;1.73;1.63;;;1.60;99.90;;;;;;5032511;28;20386;-68
2022/01/11 03:49:29;;;;;;;0.38;0.38;;;1.60;99.90;;;;;;5033525;28;20050;-68
2022/01/11 03:51:55;;;;;;;1.55;1.35;;;1.50;99.90;;;;;;5033864;28;20032;-68
2022/01/11 03:54:41;;;;;;;0.30;0.30;;;1.60;99.90;;;;;;5033794;28;20037;-68
2022/01/11 03:57:07;;;;;;;0.10;0.10;;;1.60;99.90;;;;;;5032569;28;20112;-68
2022/01/11 03:59:33;;;;;;;0.10;0.10;;;1.70;99.90;;;;;;5033901;28;20128;-68
2022/01/11 04:02:00;;;;;;;1.17;1.17;;;1.70;99.90;;;;;;5033321;28;20026;-68
2022/01/11 04:04:26;;;;;;;0.20;0.20;;;1.70;99.90;;;;;;5033500;28;20037;-69
2022/01/11 04:06:52;;;;;;;0.10;0.10;;;1.80;99.90;;;;;;5033411;28;20478;-67
2022/01/11 04:09:19;;;;;;;1.20;1.15;;;1.90;99.90;;;;;;5033573;28;20044;-67
2022/01/11 04:11:45;;;;;;;0.20;0.20;;;1.80;99.90;;;;;;5033711;28;20025;-67
2022/01/11 04:14:11;;;;;;;0.32;0.32;;;1.70;99.90;;;;;;5032022;28;20034;-67
2022/01/11 04:16:37;;;;;;;0.47;0.47;;;1.80;99.90;;;;;;5015646;28;20398;-67
2022/01/11 04:19:03;;;;;;;0.10;0.10;;;1.80;99.90;;;;;;5031976;28;20045;-67
2022/01/11 04:21:29;;;;;;;0.25;0.25;;;1.80;99.90;;;;;;5033106;28;20037;-67
2022/01/11 04:23:55;;;;;;;0.17;0.17;;;1.80;99.90;;;;;;5031841;28;20421;-68
2022/01/11 04:26:21;;;;;;;0.10;0.10;;;1.70;99.90;;;;;;5033251;28;20056;-68
2022/01/11 04:28:47;;;;;;;0.32;0.32;;;1.80;99.90;;;;;;5033152;28;20046;-67
2022/01/11 04:31:13;;;;;;;0.10;0.10;;;1.90;99.90;;;;;;5033117;28;20040;-68
2022/01/11 04:33:43;;;;;;;0.30;0.30;;;1.80;99.90;;;;;;5032136;28;20034;-68
2022/01/11 04:36:10;;;;;;;0.00;0.00;;;1.80;99.90;;;;;;5031672;28;20085;-68
2022/01/11 04:38:36;;;;;;;0.10;0.10;;;1.80;99.90;;;;;;5032893;28;20052;-68
2022/01/11 04:41:02;;;;;;;2.13;1.98;;;1.70;99.90;;;;;;5032943;28;20021;-68
2022/01/11 04:43:30;;;;;;;0.57;0.57;;;1.70;99.90;;;;;;5032779;28;20037;-68
2022/01/11 04:45:57;;;;;;;0.57;0.57;;;1.70;99.90;;;;;;5032988;28;20029;-68
2022/01/11 04:48:23;;;;;;;1.17;1.17;;;1.70;99.90;;;;;;5031112;28;20103;-67
2022/01/11 04:50:50;;;;;;;0.22;0.22;;;1.60;99.90;;;;;;5032645;28;20029;-68
2022/01/11 04:53:16;;;;;;;0.47;0.47;;;1.60;99.90;;;;;;5032800;28;20428;-69
2022/01/11 04:55:42;;;;;;;0.20;0.20;;;1.70;99.90;;;;;;5032945;28;20116;-69
2022/01/11 04:58:08;;;;;;;0.30;0.30;;;1.70;99.90;;;;;;5031346;28;20037;-69
2022/01/11 05:00:35;;;;;;;0.20;0.20;;;1.70;99.90;;;;;;5032652;28;20048;-69
2022/01/11 05:03:01;;;;;;;0.30;0.30;;;1.70;99.90;;;;;;5032410;28;20554;-69
2022/01/11 05:05:29;;;;;;;0.10;0.10;;;1.80;99.90;;;;;;5017518;28;20037;-68
2022/01/11 05:07:56;;;;;;;0.75;0.75;;;1.70;99.90;;;;;;5012277;28;20108;-66
2022/01/11 05:10:23;;;;;;;0.20;0.20;;;1.80;99.90;;;;;;5012339;28;20053;-66
2022/01/11 05:12:52;;;;;;;2.85;2.65;;;1.70;99.90;;;;;;5030382;28;20049;-66
2022/01/11 05:15:18;;;;;;;0.10;0.10;;;1.60;99.90;;;;;;5029702;28;20029;-67
2022/01/11 05:17:44;;;;;;;0.10;0.10;;;1.60;99.90;;;;;;5031179;28;20052;-67
2022/01/11 05:20:11;;;;;;;0.35;0.35;;;1.60;99.90;;;;;;5031921;28;20033;-66
2022/01/11 05:22:38;;;;;;;0.20;0.20;;;1.60;99.90;;;;;;5030746;28;20029;-66
2022/01/11 05:25:06;;;;;;;1.00;1.00;;;1.70;99.90;;;;;;5030698;28;20041;-66
2022/01/11 05:27:31;;;;;;;0.40;0.40;;;1.70;99.90;;;;;;5030630;28;20075;-66
2022/01/11 05:30:00;;;;;;;0.85;0.85;;;1.70;99.90;;;;;;5031921;28;20029;-67
2022/01/11 05:32:26;;;;;;;0.65;0.65;;;1.70;99.90;;;;;;5031967;28;20128;-65
2022/01/11 05:34:52;;;;;;;0.85;0.85;;;1.70;99.90;;;;;;5031055;28;20104;-66
2022/01/11 05:37:18;;;;;;;1.85;1.75;;;1.70;99.90;;;;;;5032130;28;20037;-66
2022/01/11 05:39:43;;;;;;;0.25;0.25;;;1.70;99.90;;;;;;5030740;28;20044;-66
2022/01/11 05:42:09;;;;;;;0.20;0.20;;;1.70;99.90;;;;;;5032054;28;20096;-67
2022/01/11 05:44:36;;;;;;;0.10;0.10;;;1.70;99.90;;;;;;5030621;28;20047;-66
2022/01/11 05:47:04;;;;;;;0.75;0.75;;;1.70;99.90;;;;;;5030944;28;20065;-66
2022/01/11 05:49:29;;;;;;;2.05;1.05;;;1.70;99.90;;;;;;5031449;28;20117;-67
2022/01/11 05:51:56;;;;;;;2.40;2.15;;;1.60;99.90;;;;;;5030521;28;20112;-66
2022/01/11 05:54:24;;;;;;;1.55;1.45;;;1.70;99.90;;;;;;5030621;28;20033;-66
2022/01/11 05:56:50;;;;;;;3.72;1.45;;;1.70;99.90;;;;;;5031635;28;20033;-68
2022/01/11 05:59:16;;;;;;;0.10;0.10;;;1.70;99.90;;;;;;5031569;28;20037;-68
2022/01/11 06:01:42;;;;;;;0.57;0.57;;;1.70;99.90;;;;;;5032028;28;20140;-68
2022/01/11 06:04:08;;;;;;;0.38;0.38;;;1.70;99.90;;;;;;5030466;28;20033;-68
2022/01/11 06:06:33;;;;;;;0.25;0.25;;;1.70;99.90;;;;;;5030517;28;20159;-67
2022/01/11 06:09:01;;;;;;;0.10;0.10;;;1.80;99.90;;;;;;5031650;28;20041;-68
2022/01/11 06:11:27;;;;;;;0.10;0.10;;;1.80;99.90;;;;;;5029939;28;20029;-66
2022/01/11 06:13:52;;;;;;;4.80;2.40;;;1.80;99.90;;;;;;5031888;28;20033;-66
2022/01/11 06:16:21;;;;;;;0.10;0.10;;;1.80;99.90;;;;;;5031541;28;20035;-66
2022/01/11 06:18:47;;;;;;;0.30;0.30;;;1.80;99.90;;;;;;5031557;28;20180;-68
2022/01/11 06:21:13;;;;;;;0.22;0.22;;;1.60;99.90;;;;;;5031530;28;20534;-67
2022/01/11 06:23:39;;;;;;;4.93;2.85;;;1.70;99.90;;;;;;5031035;28;20449;-67
2022/01/11 06:26:05;;;;;;;0.22;0.22;;;1.60;99.90;;;;;;5032689;28;20037;-67
2022/01/11 06:28:31;;;;;;;0.40;0.40;;;1.60;99.90;;;;;;5033944;28;20030;-67
2022/01/11 06:30:57;;;;;;;1.65;1.27;;;1.60;99.90;;;;;;5035566;28;20025;-67
2022/01/11 06:33:23;;;;;;;0.40;0.40;;;1.60;99.90;;;;;;5034038;28;20076;-67
2022/01/11 06:35:48;;;;;;;1.05;1.05;;;1.60;99.90;;;;;;5035511;28;20413;-67
2022/01/11 06:38:17;;;;;;;0.10;0.10;;;1.60;99.90;;;;;;5017333;28;20547;-67
2022/01/11 06:40:43;;;;;;;0.85;0.85;;;1.70;99.90;;;;;;5035101;28;20763;-67
2022/01/11 06:43:09;;;;;;;0.20;0.20;;;1.80;99.90;;;;;;5035474;28;20033;-67
2022/01/11 06:45:36;;;;;;;0.38;0.38;;;1.80;99.90;;;;;;5035253;28;20037;-68
2022/01/11 06:48:02;;;;;;;0.20;0.20;;;1.70;99.90;;;;;;5033818;28;20060;-66
2022/01/11 06:50:28;;;;;;;0.20;0.20;;;1.70;99.90;;;;;;5035100;28;20052;-67
2022/01/11 06:52:54;;;;;;;0.40;0.40;;;1.70;99.90;;;;;;5034895;28;20033;-67
2022/01/11 06:55:20;;;;;;;2.88;2.13;;;1.70;99.90;;;;;;5017055;28;20041;-65
2022/01/11 06:57:47;;;;;;;1.20;1.10;;;1.70;99.90;;;;;;5034887;28;20029;-66
2022/01/11 07:00:14;;;;;;;2.15;1.45;;;1.70;99.90;;;;;;5035066;28;20076;-66
2022/01/11 07:02:40;;;;;;;0.20;0.20;;;1.70;99.90;;;;;;5034394;28;20042;-66
2022/01/11 07:05:07;;;;;;;0.35;0.35;;;1.80;99.90;;;;;;5033253;28;20033;-66
2022/01/11 07:07:34;;;;;;;0.20;0.20;;;1.80;99.90;;;;;;5034554;28;20034;-65
2022/01/11 07:10:00;;;;;;;0.28;0.28;;;1.70;99.90;;;;;;5034610;28;20393;-66
2022/01/11 07:12:26;;;;;;;0.52;0.52;;;1.70;99.90;;;;;;5034254;28;20029;-66
2022/01/11 07:14:51;;;;;;;0.20;0.20;;;1.70;99.90;;;;;;5033306;28;20029;-66
2022/01/11 07:17:19;;;;;;;0.20;0.20;;;1.70;99.90;;;;;;5034697;28;20037;-66
2022/01/11 07:19:45;;;;;;;0.30;0.30;;;1.70;99.90;;;;;;5034716;28;20037;-66
2022/01/11 07:22:10;;;;;;;1.65;1.05;;;1.70;99.90;;;;;;5034315;28;20021;-67
2022/01/11 07:24:36;;;;;;;0.10;0.10;;;1.80;99.90;;;;;;5029175;28;20022;-65
2022/01/11 07:27:03;;;;;;;0.65;0.65;;;1.80;99.90;;;;;;5013486;28;20080;-66
2022/01/11 07:29:29;;;;;;;0.20;0.20;;;1.80;99.90;;;;;;5014442;28;20041;-66
2022/01/11 07:31:54;;;;;;;0.10;0.10;;;1.80;99.90;;;;;;5017317;28;20041;-66
2022/01/11 07:34:20;;;;;;;2.55;1.55;;;1.80;99.90;;;;;;4996689;28;20041;-66
2022/01/11 07:36:46;;;;;;;0.52;0.52;;;1.90;99.90;;;;;;5013779;28;20030;-66
2022/01/11 07:39:13;;;;;;;0.55;0.55;;;1.90;99.90;;;;;;5013009;28;20769;-66
2022/01/11 07:41:39;;;;;;;2.60;2.45;;;2.00;99.90;;;;;;5014112;28;20120;-65
2022/01/11 07:44:06;;;;;;;4.15;1.38;;;2.00;99.90;;;;;;5014582;28;20076;-64
2022/01/11 07:46:32;;;;;;;0.20;0.20;;;1.90;99.90;;;;;;5013881;28;20088;-64
2022/01/11 07:48:59;;;;;;;0.10;0.10;;;2.00;99.90;;;;;;5013951;28;20552;-64
2022/01/11 07:51:26;;;;;;;0.13;0.13;;;2.00;99.90;;;;;;5013068;28;20031;-63
2022/01/11 07:53:55;;;;;;;0.22;0.22;;;1.90;99.90;;;;;;5014174;28;20030;-63
2022/01/11 07:56:20;;;;;;;0.63;0.63;;;1.80;99.90;;;;;;5014189;28;20113;-65
2022/01/11 07:58:47;;;;;;;0.20;0.20;;;1.90;99.90;;;;;;5014076;28;20129;-64
2022/01/11 08:01:13;;;;;;;0.45;0.45;;;2.00;99.90;;;;;;5014131;28;20041;-63
2022/01/11 08:03:38;;;;;;;0.57;0.57;;;2.00;99.90;;;;;;5013815;28;20490;-63
2022/01/11 08:06:05;;;;;;;0.10;0.10;;;2.00;99.90;;;;;;5014062;28;20030;-64
2022/01/11 08:08:31;;;;;;;2.75;1.95;;;2.00;99.90;;;;;;5012496;28;20036;-62
2022/01/11 08:10:57;;;;;;;0.57;0.57;;;2.10;99.90;;;;;;5013892;28;20038;-63
2022/01/11 08:13:23;;;;;;;4.57;1.75;;;2.10;99.90;;;;;;5013550;28;20040;-62
2022/01/11 08:15:49;;;;;;;29.38;5.13;;;2.20;99.90;;;;;;5012341;28;20150;-63
2022/01/11 08:18:15;;;;;;;0.73;0.73;;;2.20;99.90;;;;;;5012461;28;20022;-63
2022/01/11 08:20:43;;;;;;;0.95;0.95;;;2.20;99.90;;;;;;5012119;28;20588;-66
2022/01/11 08:23:10;;;;;;;2.88;2.60;;;2.20;99.90;;;;;;5012404;28;20049;-63
2022/01/11 08:25:37;;;;;;;1.15;0.52;;;2.20;99.90;;;;;;5012467;28;20160;-63
2022/01/11 08:28:03;;;;;;;0.20;0.20;;;2.30;99.90;;;;;;5013819;28;20389;-63
2022/01/11 08:30:29;;;;;;;0.52;0.52;;;2.30;99.90;;;;;;5013342;28;20045;-63
2022/01/11 08:32:55;;;;;;;0.47;0.47;;;2.30;99.90;;;;;;5013483;28;20037;-63
2022/01/11 08:35:21;;;;;;;1.00;0.98;;;2.40;99.90;;;;;;5011880;28;20040;-63
2022/01/11 08:37:47;;;;;;;0.55;0.55;;;2.40;99.90;;;;;;5013722;28;20026;-63
2022/01/11 08:40:16;;;;;;;0.10;0.10;;;2.50;99.90;;;;;;4991313;28;20125;-63
2022/01/11 08:42:42;;;;;;;0.98;0.73;;;2.50;99.90;;;;;;4991144;28;20038;-63
2022/01/11 08:45:14;;;;;;;0.00;0.00;;;2.60;99.90;;;;;;4975005;28;20057;-64
2022/01/11 08:47:40;;;;;;;1.35;0.90;;;2.50;99.90;;;;;;4990838;28;20407;-63
2022/01/11 08:50:10;;;;;;;0.88;0.80;;;2.60;99.90;;;;;;4991060;28;20042;-64
2022/01/11 08:52:36;;;;;;;4.80;2.22;;;2.70;99.90;;;;;;4991026;28;20026;-64
2022/01/11 08:55:03;;;;;;;3.00;1.10;;;2.70;99.90;;;;;;4990966;28;20046;-64
2022/01/11 08:57:29;;;;;;;0.17;0.17;;;2.80;99.90;;;;;;4990789;28;20031;-64
2022/01/11 08:59:55;;;;;;;1.08;0.68;;;2.80;99.90;;;;;;4991092;28;20057;-63
2022/01/11 09:02:21;;;;;;;0.30;0.28;;;2.90;99.90;;;;;;4990864;28;20173;-63
2022/01/11 09:04:48;;;;;;;0.10;0.10;;;3.00;99.90;;;;;;4993424;28;20061;-64
2022/01/11 09:07:15;;;;;;;0.10;0.10;;;3.10;99.90;;;;;;4974654;28;20030;-64
2022/01/11 09:09:40;;;;;;;3.60;2.05;;;3.10;99.90;;;;;;4974410;28;20195;-63
2022/01/11 09:12:09;;;;;;;0.95;0.85;;;3.00;99.90;;;;;;5023639;28;20041;-64
2022/01/11 09:14:35;;;;;;;4.10;1.20;;;3.10;99.90;;;;;;5032281;28;20040;-64
2022/01/11 09:17:02;;;;;;;1.35;1.00;;;3.10;99.90;;;;;;5030010;28;20022;-63
2022/01/11 09:19:29;;;;;;;1.38;1.27;;;3.10;99.90;;;;;;5013315;28;20137;-63
2022/01/11 09:21:56;;;;;;;1.58;1.48;;;3.20;99.90;;;;;;5012901;28;20037;-63
2022/01/11 09:24:24;;;;;;;0.20;0.20;;;3.30;99.90;;;;;;4994914;28;20585;-63
2022/01/11 09:26:55;;;;;;;0.55;0.55;;;3.30;99.90;;;;;;5012571;28;20033;-64
2022/01/11 09:29:21;;;;;;;0.10;0.10;;;3.30;99.90;;;;;;5012648;28;20041;-63
2022/01/11 09:31:46;;;;;;;0.17;0.17;;;3.40;99.90;;;;;;5011351;28;20383;-63
2022/01/11 09:34:12;;;;;;;0.30;0.30;;;3.40;99.90;;;;;;5012739;28;20037;-64
2022/01/11 09:36:39;;;;;;;0.25;0.25;;;3.40;99.90;;;;;;5012207;28;20033;-63
2022/01/11 09:39:04;;;;;;;0.65;0.65;;;3.50;99.90;;;;;;5012607;28;20357;-63
2022/01/11 09:41:30;;;;;;;1.17;0.68;;;3.50;99.90;;;;;;5012465;28;20045;-64
2022/01/11 09:43:58;;;;;;;0.20;0.20;;;3.50;99.90;;;;;;5010923;28;20123;-62
2022/01/11 09:46:23;;;;;;;0.00;0.00;;;3.60;99.90;;;;;;5010982;28;20382;-63
2022/01/11 09:48:50;;;;;;;0.10;0.10;;;3.70;99.90;;;;;;5010961;28;20050;-64
2022/01/11 09:51:16;;;;;;;0.98;0.95;;;3.70;99.90;;;;;;5010907;28;20054;-64
2022/01/11 09:53:42;;;;;;;1.25;1.17;;;3.70;99.90;;;;;;5010707;28;20495;-64
2022/01/11 09:56:09;;;;;;;0.45;0.45;;;3.70;99.90;;;;;;5012425;28;20051;-63
2022/01/11 09:58:36;;;;;;;1.38;1.27;;;3.70;99.90;;;;;;5012175;28;20087;-63
2022/01/11 10:01:04;;;;;;;0.65;0.65;;;3.70;99.90;;;;;;5011891;28;20022;-64
2022/01/11 10:03:30;;;;;;;0.30;0.30;;;3.80;99.90;;;;;;5012064;28;20382;-64
2022/01/11 10:05:55;;;;;;;8.07;1.60;;;3.80;99.90;;;;;;5011948;28;20030;-64
2022/01/11 10:08:28;;;;;;;0.35;0.35;;;3.80;99.90;;;;;;5011124;28;20069;-64
2022/01/11 10:10:57;;;;;;;1.85;1.75;;;3.90;99.90;;;;;;5011095;28;20033;-64
2022/01/11 10:13:39;;;;;;;1.88;1.05;;;3.90;99.90;;;;;;5010795;28;20376;-63
2022/01/11 10:16:24;;;;;;;0.30;0.30;;;3.90;99.90;;;;;;5012215;28;20100;-64
2022/01/11 10:18:52;;;;;;;1.00;1.00;;;3.90;99.90;;;;;;5010904;28;20034;-64
2022/01/11 10:21:38;;;;;;;0.32;0.32;;;4.00;99.90;;;;;;5010702;28;20040;-63
2022/01/11 10:24:24;;;;;;;0.32;0.32;;;4.10;99.90;;;;;;5011884;28;20036;-64
2022/01/11 10:26:53;;;;;;;0.90;0.90;;;4.20;99.90;;;;;;5010711;28;20040;-64
2022/01/11 10:29:53;;;;;;;1.02;1.02;;;4.20;99.90;;;;;;5010823;28;20129;-64
2022/01/11 10:32:41;;;;;;;0.52;0.52;;;4.20;99.90;;;;;;5011491;28;20556;-62
2022/01/11 10:35:21;;;;;;;0.75;0.75;;;4.20;99.90;;;;;;5010507;28;20030;-63
2022/01/11 10:38:00;;;;;;;0.22;0.22;;;4.20;99.90;;;;;;5010317;28;20049;-64
2022/01/11 10:40:35;;;;;;;0.47;0.47;;;4.20;99.90;;;;;;5010608;28;20034;-64
2022/01/11 10:43:10;;;;;;;0.30;0.30;;;4.30;99.90;;;;;;5011795;28;20030;-64
2022/01/11 10:45:39;;;;;;;0.43;0.43;;;4.30;99.90;;;;;;5011209;28;20034;-64
2022/01/11 10:48:08;;;;;;;0.80;0.80;;;4.40;99.90;;;;;;5011321;28;20073;-63
2022/01/11 10:50:40;;;;;;;10.40;2.95;;;4.50;99.90;;;;;;5011678;28;20364;-63
2022/01/11 10:53:21;;;;;;;0.10;0.10;;;4.60;99.90;;;;;;5011839;28;20037;-63
2022/01/11 10:55:59;;;;;;;0.20;0.20;;;4.60;99.90;;;;;;5010311;28;20030;-63
2022/01/11 10:58:33;;;;;;;0.50;0.50;;;4.60;99.90;;;;;;5010244;28;20030;-64
2022/01/11 11:00:59;;;;;;;0.77;0.77;;;4.60;99.90;;;;;;5010776;28;20049;-63
2022/01/11 11:03:28;;;;;;;0.43;0.43;;;4.70;99.90;;;;;;5010023;28;20399;-63
2022/01/11 11:06:00;;;;;;;1.55;1.45;;;4.80;99.90;;;;;;5010261;28;20038;-63
2022/01/11 11:08:31;;;;;;;2.50;1.90;;;4.90;99.90;;;;;;5011418;28;20032;-63
2022/01/11 11:10:56;;;;;;;0.40;0.40;;;4.80;99.90;;;;;;5010360;28;20028;-63
2022/01/11 11:13:35;;;;;;;0.22;0.22;;;4.90;99.90;;;;;;5016135;28;20026;-63
2022/01/11 11:16:21;;;;;;;2.75;1.95;;;5.00;99.90;;;;;;5013413;28;20124;-64
2022/01/11 11:18:57;;;;;;;2.28;1.98;;;5.00;99.90;;;;;;5029796;28;20535;-64
2022/01/11 11:21:38;;;;;;;0.32;0.32;;;4.90;99.90;;;;;;5029900;28;20049;-65
2022/01/11 11:24:15;;;;;;;3.00;2.28;;;4.90;99.90;;;;;;5029733;28;20041;-65
2022/01/11 11:26:45;;;;;;;0.50;0.50;;;4.80;99.90;;;;;;5028513;28;20038;-65
2022/01/11 11:29:12;;;;;;;2.30;1.65;;;4.90;99.90;;;;;;5013406;28;20049;-64
2022/01/11 11:31:42;;;;;;;0.60;0.60;;;4.90;99.90;;;;;;5014337;28;20030;-65
2022/01/11 11:34:10;;;;;;;0.65;0.65;;;5.00;99.90;;;;;;5029592;28;20041;-65
2022/01/11 11:36:39;;;;;;;0.28;0.28;;;5.00;99.90;;;;;;5012884;28;20053;-64
2022/01/11 11:39:13;;;;;;;0.77;0.77;;;5.00;99.90;;;;;;5029325;28;20033;-64
2022/01/11 11:41:44;;;;;;;0.60;0.60;;;5.00;99.90;;;;;;5028761;28;20376;-65
2022/01/11 11:44:24;;;;;;;0.43;0.43;;;5.10;99.90;;;;;;5014663;28;20383;-64
2022/01/11 11:46:59;;;;;;;0.40;0.40;;;5.10;99.90;;;;;;5013761;28;20289;-64
2022/01/11 11:49:55;;;;;;;0.10;0.10;;;5.10;99.90;;;;;;5014059;28;20471;-65
2022/01/11 11:52:38;;;;;;;0.20;0.17;;;5.30;99.90;;;;;;5009537;28;20124;-71
2022/01/11 11:55:22;;;;;;;7.43;2.33;;;5.30;99.90;;;;;;5012629;28;20084;-64
2022/01/11 11:57:55;;;;;;;0.52;0.52;;;5.40;99.90;;;;;;5014141;28;20136;-64
2022/01/11 12:00:30;;;;;;;0.20;0.20;;;5.40;99.90;;;;;;5013907;28;20116;-64
2022/01/11 12:02:58;;;;;;;1.98;1.45;;;5.40;99.90;;;;;;5029065;28;20034;-63
2022/01/11 12:05:36;;;;;;;2.60;1.85;;;5.40;99.90;;;;;;5013783;28;20065;-64
2022/01/11 12:08:35;;;;;;;0.20;0.20;;;5.40;99.90;;;;;;5013790;28;20029;-64
2022/01/11 12:11:11;;;;;;;1.55;1.15;;;5.40;99.90;;;;;;4994563;28;20041;-64
2022/01/11 12:13:56;;;;;;;0.65;0.65;;;5.40;99.90;;;;;;5028410;28;20081;-64
2022/01/11 12:16:25;;;;;;;2.60;1.75;;;5.40;99.90;;;;;;5029186;28;20036;-63
2022/01/11 12:18:56;;;;;;;0.20;0.20;;;5.50;99.90;;;;;;5013459;28;20580;-61
2022/01/11 12:21:24;;;;;;;0.35;0.35;;;5.50;99.90;;;;;;5013868;28;20072;-62
2022/01/11 12:23:56;;;;;;;0.17;0.17;;;5.20;99.90;;;;;;5012716;28;20117;-63
2022/01/11 12:26:35;;;;;;;0.10;0.10;;;5.20;99.90;;;;;;5028851;28;20030;-63
2022/01/11 12:29:11;;;;;;;0.20;0.20;;;5.40;99.90;;;;;;5027357;28;20034;-63
2022/01/11 12:31:39;;;;;;;0.22;0.22;;;5.50;99.90;;;;;;5013239;28;20038;-63
2022/01/11 12:34:10;;;;;;;2.35;1.85;;;5.50;99.90;;;;;;5013306;28;20108;-62
2022/01/11 12:37:01;;;;;;;1.35;1.25;;;5.40;99.90;;;;;;5027519;28;20030;-62
2022/01/11 12:39:52;;;;;;;3.63;1.13;;;5.50;99.90;;;;;;5027998;28;20041;-63
2022/01/11 12:42:26;;;;;;;1.23;0.75;;;5.70;99.90;;;;;;5011715;28;20445;-63
2022/01/11 12:47:18;;;;;;;1.08;1.05;;;5.80;99.90;;;;;;5013054;28;20046;-63
2022/01/11 12:50:04;;;;;;;1.98;1.17;;;5.70;99.90;;;;;;5012507;28;20180;-63
2022/01/11 12:52:31;;;;;;;1.70;0.85;;;5.90;99.90;;;;;;5013041;28;20117;-63
2022/01/11 12:54:58;;;;;;;2.72;1.48;;;6.10;99.90;;;;;;5012845;28;20487;-63
2022/01/11 12:57:28;;;;;;;1.95;1.38;;;6.10;99.90;;;;;;5013034;28;20079;-63
2022/01/11 13:00:17;;;;;;;0.30;0.30;;;6.20;99.90;;;;;;5027690;28;20034;-63
2022/01/11 13:02:43;;;;;;;5.07;2.45;;;6.40;99.90;;;;;;5011557;28;20033;-63
2022/01/11 13:05:18;;;;;;;1.30;1.23;;;6.40;99.90;;;;;;5028170;28;20045;-63
2022/01/11 13:07:48;;;;;;;0.00;0.00;;;6.30;99.90;;;;;;5011453;28;20096;-64